Time;durP1;ratioP1;P1;durP2;ratioP2;P2;SDS_P1;SDS_P2;PMS_P1;PMS_P2;Temp;Humidity;BMP_temperature;BMP_pressure;BME280_temperature;BME280_humidity;BME280_pressure;Samples;Min_cycle;Max_cycle;Signal;HPM_P1;HPM_P2
2021/10/21 00:01:54;;;;;;;11.10;1.58;;;;;;;;;;5011775;28;20053;-72
2021/10/21 00:04:20;;;;;;;10.10;2.63;;;;;;;;;;5012206;28;20029;-71
2021/10/21 00:06:46;;;;;;;15.23;2.00;;;;;;;;;;5005225;28;20041;-74
2021/10/21 00:09:12;;;;;;;20.80;3.03;;;;;;;;;;5005415;28;20038;-72
2021/10/21 00:11:39;;;;;;;11.45;1.90;;;;;;;;;;5012157;28;20029;-73
2021/10/21 00:14:05;;;;;;;10.30;1.98;;;;;;;;;;5007921;28;20488;-73
2021/10/21 00:16:32;;;;;;;13.30;2.25;;;;;;;;;;5004068;28;20038;-73
2021/10/21 00:18:58;;;;;;;14.27;2.30;;;;;;;;;;5008060;28;20030;-74
2021/10/21 00:21:24;;;;;;;13.13;1.95;;;;;;;;;;5006289;28;20030;-73
2021/10/21 00:23:50;;;;;;;12.80;2.22;;;;;;;;;;5009209;28;20386;-73
2021/10/21 00:26:16;;;;;;;13.13;2.63;;;;;;;;;;5012535;28;20026;-73
2021/10/21 00:28:42;;;;;;;6.72;1.60;;;;;;;;;;5009640;28;20547;-74
2021/10/21 00:31:08;;;;;;;13.38;1.85;;;;;;;;;;5008498;28;20026;-73
2021/10/21 00:33:34;;;;;;;8.25;2.42;;;;;;;;;;5026271;28;20114;-74
2021/10/21 00:36:00;;;;;;;9.07;1.83;;;;;;;;;;5010768;28;20529;-73
2021/10/21 00:38:26;;;;;;;18.48;2.55;;;;;;;;;;5002112;28;20049;-75
2021/10/21 00:40:52;;;;;;;16.67;3.22;;;;;;;;;;5011488;28;20084;-74
2021/10/21 00:43:18;;;;;;;15.75;1.98;;;;;;;;;;5011571;28;20021;-73
2021/10/21 00:45:45;;;;;;;17.58;2.38;;;;;;;;;;5010721;28;20104;-75
2021/10/21 00:48:11;;;;;;;15.77;1.90;;;;;;;;;;5002747;28;20033;-74
2021/10/21 00:50:37;;;;;;;10.93;1.92;;;;;;;;;;5009588;28;20034;-74
2021/10/21 00:53:04;;;;;;;10.20;1.58;;;;;;;;;;5000865;28;20026;-72
2021/10/21 00:55:32;;;;;;;15.07;2.15;;;;;;;;;;5004702;28;20025;-73
2021/10/21 00:57:59;;;;;;;19.95;3.05;;;;;;;;;;4999621;28;20038;-74
2021/10/21 01:00:25;;;;;;;15.25;2.70;;;;;;;;;;5011265;28;20022;-72
2021/10/21 01:02:51;;;;;;;11.55;1.60;;;;;;;;;;5002734;28;20072;-73
2021/10/21 01:05:17;;;;;;;17.05;2.33;;;;;;;;;;5011108;28;20025;-73
2021/10/21 01:07:43;;;;;;;14.40;2.00;;;;;;;;;;5010435;28;20025;-74
2021/10/21 01:10:10;;;;;;;18.48;2.30;;;;;;;;;;5007049;28;20030;-73
2021/10/21 01:12:36;;;;;;;11.35;2.13;;;;;;;;;;5011389;28;20084;-74
2021/10/21 01:15:18;;;;;;;10.77;2.17;;;;;;;;;;5011042;28;20370;-75
2021/10/21 01:17:44;;;;;;;12.43;3.15;;;;;;;;;;5009462;28;20159;-74
2021/10/21 01:20:11;;;;;;;15.43;2.45;;;;;;;;;;5007764;28;20057;-75
2021/10/21 01:22:38;;;;;;;17.48;2.50;;;;;;;;;;5025658;28;20276;-74
2021/10/21 01:25:04;;;;;;;10.90;2.53;;;;;;;;;;5007520;28;20030;-74
2021/10/21 01:27:30;;;;;;;12.57;2.80;;;;;;;;;;5007776;28;20033;-74
2021/10/21 01:29:56;;;;;;;12.02;2.45;;;;;;;;;;4996262;28;20040;-74
2021/10/21 01:32:23;;;;;;;12.93;2.40;;;;;;;;;;5009061;28;20058;-74
2021/10/21 01:34:49;;;;;;;9.27;2.20;;;;;;;;;;5022020;28;20045;-73
2021/10/21 01:37:15;;;;;;;7.22;1.60;;;;;;;;;;5010910;28;20026;-73
2021/10/21 01:39:41;;;;;;;9.48;2.95;;;;;;;;;;5008897;28;20045;-73
2021/10/21 01:42:07;;;;;;;12.60;2.13;;;;;;;;;;5008646;28;20017;-74
2021/10/21 01:44:33;;;;;;;12.40;2.28;;;;;;;;;;5008592;28;20503;-73
2021/10/21 01:47:00;;;;;;;10.10;2.47;;;;;;;;;;5007670;28;20018;-73
2021/10/21 01:49:26;;;;;;;8.15;1.90;;;;;;;;;;5004248;28;20022;-74
2021/10/21 01:51:52;;;;;;;10.85;1.65;;;;;;;;;;5008709;28;20504;-74
2021/10/21 01:54:19;;;;;;;11.32;1.80;;;;;;;;;;5018987;28;20034;-74
2021/10/21 01:56:45;;;;;;;12.43;2.53;;;;;;;;;;5007769;28;20034;-74
2021/10/21 01:59:11;;;;;;;17.80;2.72;;;;;;;;;;5005985;28;20026;-74
2021/10/21 02:01:38;;;;;;;9.82;2.05;;;;;;;;;;4999378;28;20033;-74
2021/10/21 02:04:04;;;;;;;8.63;2.20;;;;;;;;;;5005982;28;20034;-74
2021/10/21 02:06:30;;;;;;;10.93;2.10;;;;;;;;;;5001502;28;20041;-74
2021/10/21 02:08:56;;;;;;;11.77;2.60;;;;;;;;;;5004897;28;20085;-73
2021/10/21 02:11:22;;;;;;;12.02;1.92;;;;;;;;;;5026117;28;20141;-74
2021/10/21 02:13:48;;;;;;;17.42;2.40;;;;;;;;;;5012690;28;20034;-73
2021/10/21 02:16:14;;;;;;;11.90;2.17;;;;;;;;;;5029504;28;20026;-74
2021/10/21 02:18:40;;;;;;;11.88;3.35;;;;;;;;;;5012551;28;20026;-73
2021/10/21 02:21:07;;;;;;;8.98;1.80;;;;;;;;;;5005438;28;20116;-74
2021/10/21 02:23:33;;;;;;;15.63;3.47;;;;;;;;;;5013988;28;20026;-73
2021/10/21 02:25:59;;;;;;;9.38;1.85;;;;;;;;;;5014093;28;20061;-73
2021/10/21 02:28:25;;;;;;;16.50;3.03;;;;;;;;;;5007876;28;20171;-74
2021/10/21 02:30:51;;;;;;;16.75;4.50;;;;;;;;;;5013862;28;20026;-74
2021/10/21 02:33:17;;;;;;;6.53;1.40;;;;;;;;;;5013531;28;20516;-72
2021/10/21 02:35:44;;;;;;;15.32;1.85;;;;;;;;;;5014322;28;20033;-72
2021/10/21 02:38:11;;;;;;;4.20;1.10;;;;;;;;;;5008280;28;20026;-73
2021/10/21 02:40:37;;;;;;;7.63;1.15;;;;;;;;;;5006189;28;20542;-75
2021/10/21 02:43:04;;;;;;;5.57;1.60;;;;;;;;;;5004355;28;20026;-72
2021/10/21 02:45:30;;;;;;;4.20;1.08;;;;;;;;;;5010637;28;20117;-73
2021/10/21 02:47:56;;;;;;;5.20;1.33;;;;;;;;;;5002203;28;20397;-72
2021/10/21 02:50:23;;;;;;;12.45;2.30;;;;;;;;;;5012066;28;20117;-73
2021/10/21 02:52:49;;;;;;;10.85;1.70;;;;;;;;;;5011668;28;20475;-72
2021/10/21 02:55:15;;;;;;;8.25;1.50;;;;;;;;;;5011838;28;20374;-72
2021/10/21 02:57:41;;;;;;;9.38;2.00;;;;;;;;;;5013385;28;20113;-72
2021/10/21 03:00:09;;;;;;;7.65;2.00;;;;;;;;;;5012074;28;20045;-72
2021/10/21 03:02:35;;;;;;;18.30;2.22;;;;;;;;;;5003381;28;20122;-74
2021/10/21 03:05:01;;;;;;;22.60;3.00;;;;;;;;;;5012357;28;20026;-73
2021/10/21 03:07:27;;;;;;;15.13;3.30;;;;;;;;;;5009166;28;20061;-72
2021/10/21 03:09:53;;;;;;;23.60;3.72;;;;;;;;;;5007526;28;20480;-71
2021/10/21 03:12:19;;;;;;;27.67;4.22;;;;;;;;;;5013848;28;20408;-72
2021/10/21 03:14:45;;;;;;;21.92;4.20;;;;;;;;;;5013099;28;20030;-70
2021/10/21 03:17:12;;;;;;;27.83;4.40;;;;;;;;;;5009384;28;20521;-70
2021/10/21 03:19:38;;;;;;;15.98;3.78;;;;;;;;;;5002206;28;20026;-70
2021/10/21 03:22:04;;;;;;;44.30;5.93;;;;;;;;;;5010872;28;20022;-70
2021/10/21 03:24:30;;;;;;;41.78;6.13;;;;;;;;;;5006413;28;20705;-74
2021/10/21 03:26:56;;;;;;;41.50;7.80;;;;;;;;;;5010005;28;20045;-70
2021/10/21 03:29:23;;;;;;;44.20;7.57;;;;;;;;;;5012090;28;20034;-72
2021/10/21 03:31:49;;;;;;;51.83;9.32;;;;;;;;;;5012234;28;20041;-71
2021/10/21 03:34:15;;;;;;;61.13;8.27;;;;;;;;;;5003958;28;20038;-74
2021/10/21 03:36:41;;;;;;;53.65;8.70;;;;;;;;;;5024610;28;20026;-71
2021/10/21 03:39:07;;;;;;;66.82;10.75;;;;;;;;;;5003581;28;20026;-70
2021/10/21 03:41:33;;;;;;;41.83;7.25;;;;;;;;;;5002971;28;20026;-72
2021/10/21 03:43:59;;;;;;;32.15;4.93;;;;;;;;;;5011999;28;20475;-73
2021/10/21 03:46:25;;;;;;;39.13;6.70;;;;;;;;;;5007641;28;20416;-71
2021/10/21 03:48:51;;;;;;;34.30;6.53;;;;;;;;;;5011282;28;20103;-72
2021/10/21 03:51:17;;;;;;;33.60;6.22;;;;;;;;;;5015058;28;20471;-73
2021/10/21 03:53:44;;;;;;;32.28;5.05;;;;;;;;;;5010004;28;20084;-72
2021/10/21 03:56:10;;;;;;;42.85;5.70;;;;;;;;;;5004569;28;20080;-72
2021/10/21 03:58:36;;;;;;;49.78;7.43;;;;;;;;;;5011330;28;20041;-73
2021/10/21 04:01:03;;;;;;;34.20;6.20;;;;;;;;;;5019937;28;20018;-72
2021/10/21 04:03:29;;;;;;;39.38;6.78;;;;;;;;;;5005443;28;20074;-71
2021/10/21 04:05:55;;;;;;;32.72;7.07;;;;;;;;;;5004094;28;20038;-72
2021/10/21 04:08:21;;;;;;;31.30;7.38;;;;;;;;;;5007153;28;20046;-72
2021/10/21 04:10:48;;;;;;;26.48;6.28;;;;;;;;;;5012092;28;20112;-69
2021/10/21 04:13:14;;;;;;;30.45;4.85;;;;;;;;;;5012301;28;20030;-72
2021/10/21 04:15:43;;;;;;;23.48;4.95;;;;;;;;;;4997818;28;20105;-71
2021/10/21 04:18:09;;;;;;;30.48;5.82;;;;;;;;;;5006249;28;20025;-70
2021/10/21 04:20:35;;;;;;;27.58;5.00;;;;;;;;;;5003811;28;20025;-68
2021/10/21 04:23:01;;;;;;;32.00;6.22;;;;;;;;;;5010863;28;20176;-71
2021/10/21 04:25:27;;;;;;;36.03;5.80;;;;;;;;;;5012503;28;20556;-68
2021/10/21 04:27:53;;;;;;;52.00;7.55;;;;;;;;;;5010791;28;20154;-68
2021/10/21 04:30:19;;;;;;;25.95;4.75;;;;;;;;;;5009721;28;20048;-71
2021/10/21 04:32:45;;;;;;;37.72;5.63;;;;;;;;;;5010459;28;20042;-71
2021/10/21 04:35:11;;;;;;;37.55;5.95;;;;;;;;;;5011497;28;20096;-70
2021/10/21 04:37:37;;;;;;;36.45;4.82;;;;;;;;;;4999228;28;20109;-69
2021/10/21 04:40:04;;;;;;;35.35;8.13;;;;;;;;;;5007875;28;20456;-69
2021/10/21 04:42:30;;;;;;;26.70;5.78;;;;;;;;;;5009086;28;20096;-70
2021/10/21 04:44:56;;;;;;;32.42;7.38;;;;;;;;;;5006791;28;20037;-72
2021/10/21 04:47:23;;;;;;;26.88;5.43;;;;;;;;;;5007110;28;20018;-71
2021/10/21 04:49:49;;;;;;;31.08;5.65;;;;;;;;;;5003850;28;20092;-72
2021/10/21 04:52:15;;;;;;;28.40;6.90;;;;;;;;;;5007312;28;20026;-69
2021/10/21 04:54:42;;;;;;;26.80;4.63;;;;;;;;;;5009197;28;20033;-71
2021/10/21 04:57:08;;;;;;;18.20;4.50;;;;;;;;;;5010878;28;20022;-69
2021/10/21 04:59:34;;;;;;;29.52;4.82;;;;;;;;;;5009325;28;20068;-71
2021/10/21 05:02:00;;;;;;;35.03;6.75;;;;;;;;;;5010450;28;20026;-71
2021/10/21 05:04:26;;;;;;;22.67;3.28;;;;;;;;;;5006713;28;20026;-71
2021/10/21 05:06:52;;;;;;;22.05;3.83;;;;;;;;;;5009801;28;20656;-69
2021/10/21 05:09:18;;;;;;;33.03;4.47;;;;;;;;;;5007119;28;20605;-69
2021/10/21 05:11:44;;;;;;;30.02;5.07;;;;;;;;;;5013630;28;20713;-69
2021/10/21 05:14:10;;;;;;;24.33;4.57;;;;;;;;;;5006460;28;20072;-71
2021/10/21 05:16:36;;;;;;;19.83;3.63;;;;;;;;;;5006464;28;20021;-72
2021/10/21 05:19:02;;;;;;;25.60;4.97;;;;;;;;;;5004722;28;20080;-70
2021/10/21 05:21:28;;;;;;;24.42;3.67;;;;;;;;;;5008934;28;20030;-71
2021/10/21 05:23:55;;;;;;;36.03;4.57;;;;;;;;;;5009503;28;20034;-71
2021/10/21 05:26:21;;;;;;;23.33;4.47;;;;;;;;;;5002766;28;20041;-71
2021/10/21 05:28:47;;;;;;;26.58;4.32;;;;;;;;;;4991845;28;20041;-70
2021/10/21 05:31:13;;;;;;;22.48;3.33;;;;;;;;;;5022467;28;20038;-70
2021/10/21 05:33:39;;;;;;;34.75;4.32;;;;;;;;;;4998551;28;20050;-72
2021/10/21 05:36:06;;;;;;;28.40;4.80;;;;;;;;;;5006695;28;20097;-71
2021/10/21 05:38:32;;;;;;;23.15;4.75;;;;;;;;;;4995637;28;20109;-71
2021/10/21 05:40:58;;;;;;;25.92;3.80;;;;;;;;;;5009019;28;20034;-71
2021/10/21 05:43:24;;;;;;;27.23;4.25;;;;;;;;;;5004059;28;20050;-71
2021/10/21 05:45:51;;;;;;;30.73;3.90;;;;;;;;;;5008367;28;20109;-71
2021/10/21 05:48:17;;;;;;;25.52;4.40;;;;;;;;;;5016081;28;20068;-71
2021/10/21 05:50:44;;;;;;;22.23;5.82;;;;;;;;;;5001732;28;20033;-72
2021/10/21 05:53:11;;;;;;;20.83;3.28;;;;;;;;;;5021659;28;20026;-73
2021/10/21 05:55:37;;;;;;;23.50;4.22;;;;;;;;;;5006206;28;20022;-72
2021/10/21 05:58:04;;;;;;;23.10;3.70;;;;;;;;;;4990564;28;20018;-74
2021/10/21 06:00:30;;;;;;;25.25;4.38;;;;;;;;;;4998450;28;20026;-73
2021/10/21 06:02:56;;;;;;;18.02;2.90;;;;;;;;;;4999646;28;20483;-72
2021/10/21 06:05:23;;;;;;;21.13;3.80;;;;;;;;;;5023471;28;20146;-73
2021/10/21 06:07:50;;;;;;;37.25;6.40;;;;;;;;;;5006855;28;20435;-72
2021/10/21 06:10:16;;;;;;;24.17;3.95;;;;;;;;;;5001214;28;20100;-71
2021/10/21 06:12:44;;;;;;;16.60;2.67;;;;;;;;;;5001661;28;20444;-72
2021/10/21 06:15:13;;;;;;;18.85;3.35;;;;;;;;;;5006021;28;20018;-72
2021/10/21 06:17:41;;;;;;;21.88;3.70;;;;;;;;;;5006064;28;20033;-72
2021/10/21 06:20:12;;;;;;;27.52;3.88;;;;;;;;;;4997377;28;20038;-74
2021/10/21 06:22:38;;;;;;;31.98;4.47;;;;;;;;;;5023574;28;20042;-72
2021/10/21 06:25:07;;;;;;;22.35;5.53;;;;;;;;;;5006132;28;20065;-72
2021/10/21 06:27:33;;;;;;;22.52;3.92;;;;;;;;;;5009915;28;20037;-72
2021/10/21 06:29:59;;;;;;;18.33;3.38;;;;;;;;;;5006916;28;20026;-73
2021/10/21 06:32:25;;;;;;;34.67;4.32;;;;;;;;;;5009709;28;20034;-71
2021/10/21 06:34:53;;;;;;;19.38;3.15;;;;;;;;;;5008408;28;20484;-73
2021/10/21 06:37:19;;;;;;;15.82;2.67;;;;;;;;;;5023702;28;20029;-70
2021/10/21 06:39:51;;;;;;;24.80;3.95;;;;;;;;;;5021509;28;20436;-72
2021/10/21 06:42:17;;;;;;;20.17;5.40;;;;;;;;;;5008358;28;20427;-71
2021/10/21 06:44:43;;;;;;;26.95;4.45;;;;;;;;;;5007477;28;20404;-71
2021/10/21 06:47:09;;;;;;;22.95;3.88;;;;;;;;;;5023530;28;20403;-73
2021/10/21 06:49:35;;;;;;;24.50;5.53;;;;;;;;;;4998544;28;20028;-72
2021/10/21 06:52:01;;;;;;;24.52;4.82;;;;;;;;;;5002411;28;20497;-71
2021/10/21 06:54:27;;;;;;;25.85;3.25;;;;;;;;;;5006100;28;20109;-71
2021/10/21 06:56:54;;;;;;;34.00;4.53;;;;;;;;;;5012689;28;20025;-72
2021/10/21 06:59:20;;;;;;;20.35;3.45;;;;;;;;;;5024719;28;20022;-70
2021/10/21 07:01:46;;;;;;;27.02;4.60;;;;;;;;;;5025068;28;20117;-69
2021/10/21 07:04:12;;;;;;;26.45;4.13;;;;;;;;;;5001255;28;20040;-70
2021/10/21 07:06:38;;;;;;;24.00;3.63;;;;;;;;;;5005747;28;20025;-71
2021/10/21 07:09:04;;;;;;;29.25;3.60;;;;;;;;;;4997738;28;20046;-71
2021/10/21 07:11:31;;;;;;;23.35;3.22;;;;;;;;;;5024778;28;20034;-72
2021/10/21 07:13:57;;;;;;;18.67;2.97;;;;;;;;;;5008993;28;20069;-73
2021/10/21 07:16:23;;;;;;;17.73;3.03;;;;;;;;;;5010979;28;20113;-71
2021/10/21 07:18:49;;;;;;;23.88;3.10;;;;;;;;;;5001628;28;20017;-74
2021/10/21 07:21:17;;;;;;;16.98;3.00;;;;;;;;;;5027904;28;20080;-73
2021/10/21 07:23:44;;;;;;;21.88;5.15;;;;;;;;;;5009832;28;20496;-71
2021/10/21 07:26:10;;;;;;;23.27;3.60;;;;;;;;;;5000179;28;20022;-70
2021/10/21 07:28:37;;;;;;;26.63;3.25;;;;;;;;;;5004151;28;20452;-76
2021/10/21 07:31:03;;;;;;;30.60;3.33;;;;;;;;;;5008107;28;20436;-74
2021/10/21 07:33:29;;;;;;;24.30;4.03;;;;;;;;;;5026034;28;20038;-73
2021/10/21 07:35:56;;;;;;;28.67;4.70;;;;;;;;;;5003368;28;20018;-72
2021/10/21 07:38:23;;;;;;;7.78;1.75;;;;;;;;;;5020894;28;20318;-75
2021/10/21 07:40:49;;;;;;;39.25;5.82;;;;;;;;;;5001496;28;20277;-75
2021/10/21 07:43:15;;;;;;;23.08;4.45;;;;;;;;;;5005634;28;20026;-72
2021/10/21 07:45:42;;;;;;;22.42;3.45;;;;;;;;;;5006159;28;20484;-74
2021/10/21 07:48:08;;;;;;;26.52;3.97;;;;;;;;;;5003509;28;20330;-73
2021/10/21 07:50:35;;;;;;;32.22;5.13;;;;;;;;;;5006873;28;20033;-73
2021/10/21 07:53:01;;;;;;;29.33;4.90;;;;;;;;;;5014223;28;21180;-74
2021/10/21 07:55:30;;;;;;;26.77;4.28;;;;;;;;;;5017704;28;20033;-73
2021/10/21 07:57:56;;;;;;;35.40;4.35;;;;;;;;;;5023989;28;20412;-70
2021/10/21 08:00:23;;;;;;;26.90;5.10;;;;;;;;;;5026360;28;20036;-72
2021/10/21 08:02:49;;;;;;;27.00;3.95;;;;;;;;;;5020292;28;20085;-71
2021/10/21 08:05:16;;;;;;;26.83;5.22;;;;;;;;;;5003583;28;20110;-72
2021/10/21 08:07:43;;;;;;;27.60;5.05;;;;;;;;;;4998800;28;20046;-70
2021/10/21 08:10:09;;;;;;;9.45;2.17;;;;;;;;;;5005163;28;20019;-72
2021/10/21 08:12:36;;;;;;;15.15;3.72;;;;;;;;;;5007415;28;20113;-73
2021/10/21 08:15:03;;;;;;;19.33;3.85;;;;;;;;;;4999970;28;20030;-74
2021/10/21 08:17:29;;;;;;;33.85;4.88;;;;;;;;;;5003427;28;20472;-75
2021/10/21 08:19:55;;;;;;;23.95;4.35;;;;;;;;;;5002442;28;20064;-74
2021/10/21 08:22:22;;;;;;;21.45;3.90;;;;;;;;;;5025338;28;20030;-72
2021/10/21 08:24:48;;;;;;;14.23;3.30;;;;;;;;;;5008246;28;20042;-72
2021/10/21 08:27:14;;;;;;;18.67;4.25;;;;;;;;;;5009206;28;20261;-75
2021/10/21 08:29:40;;;;;;;25.88;4.32;;;;;;;;;;5008000;28;20053;-72
2021/10/21 08:32:11;;;;;;;26.90;5.07;;;;;;;;;;5000373;28;20153;-71
2021/10/21 08:34:37;;;;;;;19.15;3.13;;;;;;;;;;5011906;28;20388;-74
2021/10/21 08:37:03;;;;;;;12.60;2.38;;;;;;;;;;5002492;28;20081;-70
2021/10/21 08:39:29;;;;;;;11.07;3.17;;;;;;;;;;5002065;28;20074;-73
2021/10/21 08:41:55;;;;;;;19.20;3.30;;;;;;;;;;5012077;28;20037;-73
2021/10/21 08:44:21;;;;;;;19.23;2.75;;;;;;;;;;5011913;28;20030;-75
2021/10/21 08:46:51;;;;;;;13.98;3.60;;;;;;;;;;5009859;28;20167;-73
2021/10/21 08:49:18;;;;;;;24.00;4.10;;;;;;;;;;5021933;28;20465;-74
2021/10/21 08:51:45;;;;;;;27.67;5.00;;;;;;;;;;5025957;28;20042;-74
2021/10/21 08:54:11;;;;;;;17.35;3.17;;;;;;;;;;5009026;28;20022;-72
2021/10/21 08:56:37;;;;;;;26.00;3.67;;;;;;;;;;5007670;28;20022;-74
2021/10/21 08:59:04;;;;;;;20.45;3.22;;;;;;;;;;5019342;28;20026;-73
2021/10/21 09:01:40;;;;;;;19.95;3.13;;;;;;;;;;5002487;28;20037;-72
2021/10/21 09:09:22;;;;;;;22.70;2.80;;;;;;;;;;5008103;28;20077;-72
2021/10/21 09:12:04;;;;;;;21.35;3.65;;;;;;;;;;5007512;28;20506;-72
2021/10/21 09:14:37;;;;;;;21.33;3.22;;;;;;;;;;5004315;28;20026;-72
2021/10/21 09:17:04;;;;;;;17.65;4.22;;;;;;;;;;5000641;28;20018;-73
2021/10/21 09:19:31;;;;;;;15.68;2.88;;;;;;;;;;4999841;28;20472;-71
2021/10/21 09:21:57;;;;;;;14.70;3.65;;;;;;;;;;4997473;28;20026;-70
2021/10/21 09:24:40;;;;;;;15.07;2.63;;;;;;;;;;5015280;28;20417;-72
2021/10/21 09:27:09;;;;;;;16.75;2.65;;;;;;;;;;5002630;28;20030;-72
2021/10/21 09:29:45;;;;;;;16.25;2.70;;;;;;;;;;5021185;28;20030;-71
2021/10/21 09:32:18;;;;;;;18.95;3.17;;;;;;;;;;5026208;28;20042;-72
2021/10/21 09:34:45;;;;;;;12.85;2.20;;;;;;;;;;4999750;28;20393;-74
2021/10/21 09:37:12;;;;;;;14.13;3.25;;;;;;;;;;5001132;28;20047;-71
2021/10/21 09:39:46;;;;;;;18.10;3.15;;;;;;;;;;5002363;28;20026;-72
2021/10/21 09:42:13;;;;;;;21.92;3.53;;;;;;;;;;5001581;28;20100;-73
2021/10/21 09:44:39;;;;;;;17.83;3.15;;;;;;;;;;5001383;28;20109;-74
2021/10/21 09:47:35;;;;;;;14.73;2.80;;;;;;;;;;5007370;28;20396;-70
2021/10/21 09:50:15;;;;;;;22.23;2.33;;;;;;;;;;4986175;28;20133;-74
2021/10/21 09:52:41;;;;;;;17.52;2.53;;;;;;;;;;5022908;28;20017;-73
2021/10/21 09:55:10;;;;;;;14.57;2.70;;;;;;;;;;5001951;28;20026;-72
2021/10/21 09:57:36;;;;;;;23.20;3.42;;;;;;;;;;5023577;28;20109;-71
2021/10/21 10:00:08;;;;;;;17.38;3.97;;;;;;;;;;5003350;28;20385;-71
2021/10/21 10:02:34;;;;;;;15.65;2.78;;;;;;;;;;5004204;28;20014;-72
2021/10/21 10:05:03;;;;;;;20.52;3.10;;;;;;;;;;5004306;28;20115;-72
2021/10/21 10:07:30;;;;;;;21.80;4.00;;;;;;;;;;5006533;28;20026;-73
2021/10/21 10:09:59;;;;;;;18.52;3.13;;;;;;;;;;5005191;28;20032;-72
2021/10/21 10:12:27;;;;;;;19.70;3.15;;;;;;;;;;4996288;28;20022;-72
2021/10/21 10:14:54;;;;;;;15.35;2.25;;;;;;;;;;5005973;28;20041;-72
2021/10/21 10:17:21;;;;;;;23.67;3.45;;;;;;;;;;5007572;28;20022;-74
2021/10/21 10:19:48;;;;;;;24.80;3.88;;;;;;;;;;5020105;28;20041;-72
2021/10/21 10:22:18;;;;;;;16.15;3.60;;;;;;;;;;4996499;28;20026;-73
2021/10/21 10:24:44;;;;;;;9.95;2.28;;;;;;;;;;5003447;28;20061;-74
2021/10/21 10:27:28;;;;;;;18.27;4.28;;;;;;;;;;5000966;28;20030;-74
2021/10/21 10:29:54;;;;;;;27.80;5.40;;;;;;;;;;5000850;28;20034;-72
2021/10/21 10:32:34;;;;;;;26.85;3.35;;;;;;;;;;5010845;28;20408;-71
2021/10/21 10:35:03;;;;;;;26.10;2.75;;;;;;;;;;5002495;28;20053;-72
2021/10/21 10:37:29;;;;;;;22.52;2.80;;;;;;;;;;4999371;28;20034;-72
2021/10/21 10:40:00;;;;;;;15.63;2.90;;;;;;;;;;5022341;28;20026;-72
2021/10/21 10:42:29;;;;;;;18.83;3.27;;;;;;;;;;5000410;28;20401;-71
2021/10/21 10:44:58;;;;;;;21.90;4.45;;;;;;;;;;5007679;28;20021;-75
2021/10/21 10:47:43;;;;;;;12.43;2.47;;;;;;;;;;5028848;28;20044;-72
2021/10/21 10:50:14;;;;;;;15.85;3.80;;;;;;;;;;5002273;28;20424;-70
2021/10/21 10:52:47;;;;;;;16.25;2.22;;;;;;;;;;5012573;28;20065;-72
2021/10/21 10:55:17;;;;;;;15.95;1.80;;;;;;;;;;5008882;28;20045;-71
2021/10/21 10:57:43;;;;;;;19.45;2.05;;;;;;;;;;5036060;28;20037;-72
2021/10/21 11:00:30;;;;;;;10.63;2.08;;;;;;;;;;5009835;28;20019;-73
2021/10/21 11:02:59;;;;;;;16.80;3.00;;;;;;;;;;4997004;28;20121;-72
2021/10/21 11:05:47;;;;;;;19.33;2.50;;;;;;;;;;5011468;28;20101;-71
2021/10/21 11:08:14;;;;;;;23.80;3.42;;;;;;;;;;5027123;28;20350;-73
2021/10/21 11:10:42;;;;;;;28.27;3.20;;;;;;;;;;5007593;28;20076;-73
2021/10/21 11:13:37;;;;;;;29.13;3.13;;;;;;;;;;5001874;28;20141;-73
2021/10/21 11:16:06;;;;;;;19.70;2.92;;;;;;;;;;4994662;28;20084;-72
2021/10/21 11:18:39;;;;;;;15.23;2.55;;;;;;;;;;5010347;28;20021;-72
2021/10/21 11:21:06;;;;;;;28.67;3.03;;;;;;;;;;5015121;28;20128;-72
2021/10/21 11:23:32;;;;;;;17.92;2.90;;;;;;;;;;5029406;28;20029;-72
2021/10/21 11:26:02;;;;;;;23.42;3.80;;;;;;;;;;5007983;28;20096;-72
2021/10/21 11:28:30;;;;;;;29.08;4.43;;;;;;;;;;5023040;28;20040;-72
2021/10/21 11:30:57;;;;;;;25.27;3.65;;;;;;;;;;5013571;28;20070;-72
2021/10/21 11:33:23;;;;;;;22.27;2.72;;;;;;;;;;5010676;28;20093;-72
2021/10/21 11:35:51;;;;;;;21.00;3.83;;;;;;;;;;5011816;28;20037;-72
2021/10/21 11:38:18;;;;;;;27.27;4.97;;;;;;;;;;5011813;28;20017;-73
2021/10/21 11:40:51;;;;;;;18.95;3.60;;;;;;;;;;5011800;28;20029;-74
2021/10/21 11:43:22;;;;;;;18.95;3.20;;;;;;;;;;5031762;28;20120;-74
2021/10/21 11:45:52;;;;;;;22.17;4.18;;;;;;;;;;5029636;28;20043;-72
2021/10/21 11:48:19;;;;;;;29.42;4.50;;;;;;;;;;5006386;28;20408;-71
2021/10/21 11:50:50;;;;;;;27.40;4.35;;;;;;;;;;5013615;28;20025;-72
2021/10/21 11:53:17;;;;;;;28.55;4.60;;;;;;;;;;5021429;28;20029;-72
2021/10/21 11:55:44;;;;;;;19.92;3.88;;;;;;;;;;5015296;28;20033;-72
2021/10/21 11:58:16;;;;;;;28.60;5.03;;;;;;;;;;5006470;28;20009;-72
2021/10/21 12:00:44;;;;;;;20.55;5.53;;;;;;;;;;5009350;28;20025;-72
2021/10/21 12:03:10;;;;;;;21.98;3.78;;;;;;;;;;5002753;28;20495;-73
2021/10/21 12:05:39;;;;;;;34.60;4.65;;;;;;;;;;5012516;28;20037;-71
2021/10/21 12:08:05;;;;;;;27.15;4.95;;;;;;;;;;4998950;28;20034;-71
2021/10/21 12:10:33;;;;;;;28.73;3.08;;;;;;;;;;5002547;28;20113;-70
2021/10/21 12:13:00;;;;;;;23.63;4.88;;;;;;;;;;5011972;28;20525;-72
2021/10/21 12:15:28;;;;;;;22.35;3.25;;;;;;;;;;5012238;28;20019;-72
2021/10/21 12:17:54;;;;;;;23.33;4.05;;;;;;;;;;5002926;28;20347;-72
2021/10/21 12:20:53;;;;;;;19.95;2.50;;;;;;;;;;5009007;28;20024;-72
2021/10/21 12:23:19;;;;;;;12.85;2.17;;;;;;;;;;5033416;28;20087;-71
2021/10/21 12:25:49;;;;;;;14.05;2.33;;;;;;;;;;5013411;28;20044;-71
2021/10/21 12:28:16;;;;;;;16.70;3.03;;;;;;;;;;5001920;28;20032;-73
2021/10/21 12:30:42;;;;;;;19.45;3.80;;;;;;;;;;5007884;28;20071;-72
2021/10/21 12:33:09;;;;;;;25.15;3.53;;;;;;;;;;5009096;28;20045;-73
2021/10/21 12:35:36;;;;;;;30.27;5.45;;;;;;;;;;5015220;28;20018;-71
2021/10/21 12:38:06;;;;;;;34.30;4.80;;;;;;;;;;5009844;28;20061;-72
2021/10/21 12:40:36;;;;;;;22.15;3.25;;;;;;;;;;5003854;28;20021;-72
2021/10/21 12:43:15;;;;;;;21.85;3.78;;;;;;;;;;5008694;28;20024;-72
2021/10/21 12:45:41;;;;;;;16.10;3.38;;;;;;;;;;5011511;28;20029;-72
2021/10/21 12:48:20;;;;;;;22.90;3.38;;;;;;;;;;4998918;28;20041;-72
2021/10/21 12:50:47;;;;;;;15.35;2.80;;;;;;;;;;5005468;28;20103;-71
2021/10/21 12:53:17;;;;;;;17.08;3.47;;;;;;;;;;5012815;28;20121;-71
2021/10/21 12:55:43;;;;;;;18.48;2.92;;;;;;;;;;5008005;28;20053;-72
2021/10/21 12:58:18;;;;;;;21.58;3.70;;;;;;;;;;5027561;28;20257;-73
2021/10/21 13:00:48;;;;;;;20.45;2.75;;;;;;;;;;5006861;28;20037;-73
2021/10/21 13:03:22;;;;;;;17.25;3.28;;;;;;;;;;5024577;28;20177;-71
2021/10/21 13:05:52;;;;;;;21.73;3.42;;;;;;;;;;5008663;28;20065;-71
2021/10/21 13:08:19;;;;;;;21.58;4.63;;;;;;;;;;4991437;28;20405;-72
2021/10/21 13:13:23;;;;;;;32.05;4.68;;;;;;;;;;5009024;28;20101;-71
2021/10/21 13:15:49;;;;;;;28.60;4.20;;;;;;;;;;5005494;28;20029;-71
2021/10/21 13:18:16;;;;;;;24.70;4.00;;;;;;;;;;5007346;28;20055;-73
2021/10/21 13:20:42;;;;;;;32.72;4.80;;;;;;;;;;5031080;28;20032;-71
2021/10/21 13:23:08;;;;;;;23.95;4.88;;;;;;;;;;5024119;28;20080;-71
2021/10/21 13:25:36;;;;;;;21.85;3.72;;;;;;;;;;5004091;28;20036;-71
2021/10/21 13:28:02;;;;;;;16.65;3.42;;;;;;;;;;5006212;28;20027;-71
2021/10/21 13:30:28;;;;;;;20.88;3.60;;;;;;;;;;5005078;28;20044;-70
2021/10/21 13:32:55;;;;;;;26.13;3.95;;;;;;;;;;5002196;28;20054;-72
2021/10/21 13:35:21;;;;;;;24.17;4.93;;;;;;;;;;5014001;28;20029;-72
2021/10/21 13:37:47;;;;;;;20.88;5.18;;;;;;;;;;5025726;28;20185;-70
2021/10/21 13:40:14;;;;;;;34.40;5.03;;;;;;;;;;5022389;28;20025;-72
2021/10/21 13:42:40;;;;;;;49.03;8.52;;;;;;;;;;5011598;28;20017;-71
2021/10/21 13:45:06;;;;;;;53.08;6.50;;;;;;;;;;5002682;28;20022;-71
2021/10/21 13:47:32;;;;;;;30.85;5.65;;;;;;;;;;5000925;28;20044;-73
2021/10/21 13:49:58;;;;;;;36.90;7.22;;;;;;;;;;5003897;28;20500;-71
2021/10/21 13:52:24;;;;;;;37.50;6.88;;;;;;;;;;5007683;28;20079;-72
2021/10/21 13:54:50;;;;;;;41.42;7.60;;;;;;;;;;5003568;28;20053;-72
2021/10/21 13:57:21;;;;;;;45.10;7.68;;;;;;;;;;5008805;28;20030;-71
2021/10/21 13:59:47;;;;;;;41.03;6.10;;;;;;;;;;5020263;28;20111;-70
2021/10/21 14:02:13;;;;;;;38.80;6.53;;;;;;;;;;5006143;28;20054;-71
2021/10/21 14:04:39;;;;;;;36.60;6.00;;;;;;;;;;5000176;28;20462;-71
2021/10/21 14:07:07;;;;;;;45.20;5.70;;;;;;;;;;5024620;28;20447;-71
2021/10/21 14:09:33;;;;;;;37.60;6.40;;;;;;;;;;4998790;28;20481;-71
2021/10/21 14:11:59;;;;;;;37.58;6.03;;;;;;;;;;5024430;28;20440;-71
2021/10/21 14:14:25;;;;;;;46.63;6.70;;;;;;;;;;5014823;28;20014;-71
2021/10/21 14:16:51;;;;;;;38.25;5.90;;;;;;;;;;4999783;28;20026;-71
2021/10/21 14:19:18;;;;;;;35.00;5.32;;;;;;;;;;5002828;28;20025;-72
2021/10/21 14:21:46;;;;;;;38.38;5.45;;;;;;;;;;5007015;28;20863;-70
2021/10/21 14:24:12;;;;;;;41.03;6.25;;;;;;;;;;5001514;28;20027;-70
2021/10/21 14:26:39;;;;;;;43.65;6.18;;;;;;;;;;5004205;28;20061;-71
2021/10/21 14:29:09;;;;;;;33.72;5.55;;;;;;;;;;5022887;28;20049;-70
2021/10/21 14:31:39;;;;;;;25.38;3.92;;;;;;;;;;5013295;28;20021;-72
2021/10/21 14:34:05;;;;;;;33.78;5.68;;;;;;;;;;5008473;28;20034;-71
2021/10/21 14:36:32;;;;;;;46.92;9.40;;;;;;;;;;4997008;28;20022;-71
2021/10/21 14:38:58;;;;;;;32.25;6.00;;;;;;;;;;5001460;28;20030;-72
2021/10/21 14:44:01;;;;;;;40.50;6.30;;;;;;;;;;4993406;28;20701;-69